CMA CGM Butterfly — A8NO8 — position and weather

sailwx.info

Track history (hours):
 
Tides and Currents Weather Stations Pressure Air Temp Water Temp Dewpoint Dewpoint Depression Visibility Wind Speed Wind Dir Waves Ship Positions

CMA CGM Butterfly

Last reported at 2015-Jul-29 05:31 UTC. Time now 2015-Jul-29 18:01 UTC.
Position N 35°01' E 018°08'.

Length 350 m; draft 11.6 m.

Type: Ship (hazmat cat A). MMSI: 636091420.

Date/timePositionNaut miles runAvg speedWind from/ knotsBaromVisibWave heightAir tempDewpointWater temp
2015-Jul-29 05:31N 35°01' E 018°08'1712.5
2015-Jul-29 04:12N 35°05' E 017°49'6412.8
2015-Jul-28 23:11N 35°21' E 016°33'812.4
2015-Jul-28 22:32N 35°24' E 016°24'1612.4
2015-Jul-28 21:16N 35°28' E 016°05'2112.5
2015-Jul-28 19:33N 35°33' E 015°40'1212.5
2015-Jul-28 18:34N 35°37' E 015°25'1312.5
2015-Jul-28 17:34N 35°40' E 015°10'1212.5
2015-Jul-28 16:34N 35°43' E 014°55'1212.4
2015-Jul-28 15:34N 35°46' E 014°40'7 7.4
2015-Jul-28 14:33N 35°49' E 014°32'0 0.0
2015-Jul-28 13:33N 35°49' E 014°32'0 0.0
2015-Jul-28 12:33N 35°49' E 014°32'0 0.0
2015-Jul-28 11:33N 35°49' E 014°32'0 0.0
2015-Jul-28 10:24N 35°49' E 014°32'0 0.0
2015-Jul-28 09:27N 35°49' E 014°32'0 0.0
2015-Jul-28 08:12N 35°49' E 014°32'0 0.0
2015-Jul-28 07:24N 35°49' E 014°32'0 0.0
2015-Jul-28 05:27N 35°49' E 014°32'0 0.0
2015-Jul-28 04:24N 35°49' E 014°32'0 0.0
2015-Jul-28 03:33N 35°49' E 014°32'0 0.0
2015-Jul-27 20:33N 35°49' E 014°32'3 3.3
2015-Jul-27 19:33N 35°47' E 014°35'1211.5
2015-Jul-27 18:33N 35°46' E 014°21'1312.9
2015-Jul-27 17:33N 35°53' E 014°08'1312.9
2015-Jul-27 16:33N 36°00' E 013°54'1312.8
2015-Jul-27 15:33N 36°07' E 013°40'1212.5
2015-Jul-27 14:33N 36°13' E 013°27'1212.4
2015-Jul-27 13:33N 36°20' E 013°14'1212.4
2015-Jul-27 12:33N 36°27' E 013°01'1312.6
2015-Jul-27 11:33N 36°33' E 012°48'1312.5
2015-Jul-27 10:33N 36°40' E 012°35'1313.2
2015-Jul-27 09:33N 36°47' E 012°21'1313.4
2015-Jul-27 08:33N 36°54' E 012°07'1313.2
2015-Jul-27 07:33N 37°01' E 011°52'2612.7
2015-Jul-27 05:31N 37°15' E 011°25'1713.4
2015-Jul-27 04:14N 37°23' E 011°06'2313.7
2015-Jul-27 02:31N 37°34' E 010°40'1613.4
2015-Jul-27 01:18N 37°42' E 010°22'1013.3
2015-Jul-27 00:33N 37°47' E 010°11'1313.1
2015-Jul-26 23:32N 37°54' E 009°57'1313.1
2015-Jul-26 22:33N 38°00' E 009°42'1312.8
2015-Jul-26 21:33N 38°06' E 009°28'1512.7
2015-Jul-26 20:23N 38°13' E 009°11'1512.8
2015-Jul-26 19:12N 38°20' E 008°54'912.6
2015-Jul-26 18:30N 38°24' E 008°44'1212.9
2015-Jul-26 17:32N 38°30' E 008°30'4212.9
2015-Jul-26 14:17N 39°04' E 007°59'23713.4
2015-Jul-25 20:33N 42°33' E 005°30'1313.4
2015-Jul-25 19:33N 42°45' E 005°21'1312.6
2015-Jul-25 18:33N 42°56' E 005°13'1312.8
2015-Jul-25 17:33N 43°07' E 005°04'1313.0
2015-Jul-25 16:33N 43°19' E 004°59'8 7.8
2015-Jul-25 15:33N 43°25' E 004°51'0 0.0
2015-Jul-25 14:32N 43°25' E 004°51'0 0.0
2015-Jul-25 13:32N 43°25' E 004°51'0 0.0
2015-Jul-25 12:32N 43°25' E 004°51'0 0.0
2015-Jul-25 11:32N 43°25' E 004°51'0 0.0
2015-Jul-25 10:32N 43°25' E 004°51'0 0.0
2015-Jul-25 09:32N 43°25' E 004°51'0 0.0
2015-Jul-25 08:32N 43°25' E 004°51'0 0.0
2015-Jul-25 07:32N 43°25' E 004°51'0 0.0
2015-Jul-25 06:32N 43°25' E 004°51'0 0.0
2015-Jul-25 05:32N 43°25' E 004°51'0 0.0
2015-Jul-25 04:32N 43°25' E 004°51'0 0.0
2015-Jul-25 03:32N 43°25' E 004°51'0 0.0
2015-Jul-25 02:32N 43°25' E 004°51'0 0.0
2015-Jul-25 01:32N 43°25' E 004°51'0 0.0
2015-Jul-25 00:32N 43°25' E 004°51'0 0.0
2015-Jul-24 23:32N 43°25' E 004°51'0 0.0
2015-Jul-24 22:32N 43°25' E 004°51'0 0.0
2015-Jul-24 21:32N 43°25' E 004°51'0 0.0
2015-Jul-24 20:32N 43°25' E 004°51'0 0.0
2015-Jul-24 19:32N 43°25' E 004°51'0 0.0
2015-Jul-24 18:32N 43°25' E 004°51'0 0.0
2015-Jul-24 17:32N 43°25' E 004°51'0 0.0
2015-Jul-24 16:32N 43°25' E 004°51'0 0.0
2015-Jul-24 15:32N 43°25' E 004°51'0 0.0
2015-Jul-24 14:32N 43°25' E 004°51'0 0.0
2015-Jul-24 13:32N 43°25' E 004°51'0 0.0
2015-Jul-24 12:32N 43°25' E 004°51'0 0.0
2015-Jul-24 11:32N 43°25' E 004°51'0 0.0
2015-Jul-24 10:32N 43°25' E 004°51'0 0.0
2015-Jul-24 09:32N 43°25' E 004°51'0 0.0
2015-Jul-24 08:32N 43°25' E 004°51'0 0.0
2015-Jul-24 07:32N 43°25' E 004°51'0 0.0
2015-Jul-24 06:32N 43°25' E 004°51'0 0.0
2015-Jul-24 05:32N 43°25' E 004°51'0 0.0
2015-Jul-24 04:32N 43°25' E 004°51'0 0.0
2015-Jul-24 03:32N 43°25' E 004°51'0 0.0
2015-Jul-24 02:32N 43°25' E 004°51'0 0.0
2015-Jul-24 01:32N 43°25' E 004°51'0 0.0
2015-Jul-24 00:32N 43°25' E 004°51'0 0.0
2015-Jul-23 23:33N 43°25' E 004°51'2 2.5
2015-Jul-23 22:33N 43°24' E 004°54'8 8.5
2015-Jul-23 21:33N 43°17' E 005°00'1110.5
2015-Jul-23 20:33N 43°07' E 004°57'1212.0
2015-Jul-23 19:33N 42°58' E 004°45'1212.0
2015-Jul-23 18:33N 42°49' E 004°34'1211.9
2015-Jul-23 17:33N 42°40' E 004°24'1211.8
2015-Jul-23 16:33N 42°31' E 004°13'1212.0
2015-Jul-23 15:33N 42°22' E 004°03'1111.4
2015-Jul-23 14:33N 42°14' E 003°53'1111.2
2015-Jul-23 13:33N 42°05' E 003°43'6311.6
2015-Jul-23 08:09N 41°24' E 002°39'1012.5
2015-Jul-23 07:19N 41°20' E 002°26'1012.5
2015-Jul-23 06:30N 41°17' E 002°13'5 1.2
2015-Jul-23 02:32N 41°21' E 002°10'0 0.0
2015-Jul-23 01:31N 41°21' E 002°10'0 0.0
2015-Jul-23 00:26N 41°21' E 002°10'0 0.0
2015-Jul-22 23:32N 41°21' E 002°10'0 0.0
2015-Jul-22 22:31N 41°21' E 002°10'0 0.0
2015-Jul-22 20:31N 41°21' E 002°10'0 0.0
2015-Jul-22 18:25N 41°21' E 002°10'0 0.0
2015-Jul-22 17:20N 41°21' E 002°10'0 0.0
2015-Jul-22 16:29N 41°21' E 002°10'4 4.3
2015-Jul-22 15:33N 41°17' E 002°12'7 7.3
2015-Jul-22 14:32N 41°11' E 002°07'1212.2
2015-Jul-22 13:33N 41°01' E 001°58'1212.1
2015-Jul-22 12:33N 40°51' E 001°49'1212.0
2015-Jul-22 11:33N 40°41' E 001°40'1211.9
2015-Jul-22 10:33N 40°31' E 001°31'1211.6
2015-Jul-22 09:34N 40°22' E 001°22'1211.8
2015-Jul-22 08:33N 40°12' E 001°13'1211.8
2015-Jul-22 07:33N 40°02' E 001°05'1211.9
2015-Jul-22 06:33N 39°53' E 000°55'1211.7
2015-Jul-22 05:33N 39°43' E 000°47'4911.1
2015-Jul-22 01:08N 39°26' W 000°13'5 8.4
2015-Jul-22 00:33N 39°26' W 000°19'1 0.5
2015-Jul-21 23:22N 39°27' W 000°19'0 0.0
2015-Jul-21 22:31N 39°27' W 000°19'0 0.0
2015-Jul-21 21:31N 39°27' W 000°19'0 0.0
2015-Jul-21 20:31N 39°27' W 000°19'0 0.0
2015-Jul-21 19:31N 39°27' W 000°19'0 0.0
2015-Jul-21 18:31N 39°27' W 000°19'0 0.0
2015-Jul-21 17:31N 39°27' W 000°19'0 0.0
2015-Jul-21 16:31N 39°27' W 000°19'0 0.0
2015-Jul-21 15:31N 39°27' W 000°19'0 0.0
2015-Jul-21 14:31N 39°27' W 000°19'0 0.0
2015-Jul-21 13:31N 39°27' W 000°19'0 0.0
2015-Jul-21 12:31N 39°27' W 000°19'0 0.0
2015-Jul-21 11:28N 39°27' W 000°19'0 0.0
2015-Jul-21 10:31N 39°27' W 000°19'0 0.0
2015-Jul-21 09:31N 39°27' W 000°19'0 0.0
2015-Jul-21 08:31N 39°27' W 000°19'0 0.0
2015-Jul-21 07:31N 39°27' W 000°19'0 0.0
2015-Jul-21 06:31N 39°27' W 000°19'0 0.0
2015-Jul-21 05:28N 39°27' W 000°19'0 0.0
2015-Jul-21 04:31N 39°27' W 000°19'0 0.0
2015-Jul-21 03:31N 39°27' W 000°19'0 0.0
2015-Jul-21 02:31N 39°27' W 000°19'0 0.0
2015-Jul-21 01:28N 39°27' W 000°19'0 0.0
2015-Jul-21 00:31N 39°27' W 000°19'0 0.0
2015-Jul-20 23:33N 39°27' W 000°19'5 5.3
2015-Jul-20 22:33N 39°25' W 000°12'1616.0
2015-Jul-20 21:33N 39°22' E 000°08'1616.1
2015-Jul-20 20:34N 39°20' E 000°29'1615.8
2015-Jul-20 19:33N 39°18' E 000°49'1615.9
2015-Jul-20 18:33N 39°15' E 001°09'1616.3
2015-Jul-20 17:34N 39°13' E 001°30'1616.1
2015-Jul-20 16:33N 39°10' E 001°50'1616.1
2015-Jul-20 15:33N 39°06' E 002°10'1616.3
2015-Jul-20 14:33N 39°02' E 002°31'1616.1
2015-Jul-20 13:33N 38°59' E 002°51'1616.4
2015-Jul-20 12:33N 38°55' E 003°11'1616.4
2015-Jul-20 11:33N 38°51' E 003°32'1616.3
2015-Jul-20 10:33N 38°48' E 003°52'1616.4
2015-Jul-20 09:33N 38°43' E 004°13'1616.3
2015-Jul-20 08:33N 38°40' E 004°33'1616.3
2015-Jul-20 07:33N 38°36' E 004°53'1616.4
2015-Jul-20 06:33N 38°33' E 005°14'1716.7
2015-Jul-20 05:34N 38°29' E 005°35'1818.1
2015-Jul-20 04:33N 38°25' E 005°57'1717.5
2015-Jul-20 03:33N 38°20' E 006°19'1717.2
2015-Jul-20 02:33N 38°16' E 006°40'1817.9
2015-Jul-20 01:33N 38°13' E 007°03'2018.5
2015-Jul-20 00:27N 38°08' E 007°28'1819.2
2015-Jul-19 23:30N 38°04' E 007°50'3718.6
2015-Jul-19 21:33N 37°55' E 008°35'1717.4
2015-Jul-19 20:33N 37°51' E 008°57'1717.0
2015-Jul-19 19:33N 37°47' E 009°17'1717.2
2015-Jul-19 18:33N 37°43' E 009°39'1716.8
2015-Jul-19 17:34N 37°40' E 009°59'1716.7
2015-Jul-19 16:33N 37°38' E 010°20'1716.8
2015-Jul-19 15:33N 37°34' E 010°41'1918.6
2015-Jul-19 14:33N 37°29' E 011°03'2019.9
2015-Jul-19 13:33N 37°20' E 011°26'2019.9
2015-Jul-19 12:33N 37°09' E 011°47'1919.3
2015-Jul-19 11:33N 36°59' E 012°07'1919.2
2015-Jul-19 10:33N 36°48' E 012°27'2019.6
2015-Jul-19 09:33N 36°38' E 012°48'2019.9
2015-Jul-19 08:33N 36°26' E 013°08'2019.7
2015-Jul-19 07:33N 36°15' E 013°28'2019.7
2015-Jul-19 06:33N 36°04' E 013°48'2019.7
2015-Jul-19 05:33N 35°53' E 014°08'  
Track history (hours):
 
Tides and Currents Weather Stations Pressure Air Temp Water Temp Dewpoint Dewpoint Depression Visibility Wind Speed Wind Dir Waves Ship Positions

CMA CGM Butterfly

Last reported at 2015-Jul-29 05:31 UTC. Time now 2015-Jul-29 18:01 UTC.
Position N 35°01' E 018°08'.

Length 350 m; draft 11.6 m.

Type: Ship (hazmat cat A). MMSI: 636091420.

Date/timePositionNaut miles runAvg speedWind from/ knotsBaromVisibWave heightAir tempDewpointWater temp
2015-Jul-29 05:31N 35°01' E 018°08'1712.5
2015-Jul-29 04:12N 35°05' E 017°49'6412.8
2015-Jul-28 23:11N 35°21' E 016°33'812.4
2015-Jul-28 22:32N 35°24' E 016°24'1612.4
2015-Jul-28 21:16N 35°28' E 016°05'2112.5
2015-Jul-28 19:33N 35°33' E 015°40'1212.5
2015-Jul-28 18:34N 35°37' E 015°25'1312.5
2015-Jul-28 17:34N 35°40' E 015°10'1212.5
2015-Jul-28 16:34N 35°43' E 014°55'1212.4
2015-Jul-28 15:34N 35°46' E 014°40'7 7.4
2015-Jul-28 14:33N 35°49' E 014°32'0 0.0
2015-Jul-28 13:33N 35°49' E 014°32'0 0.0
2015-Jul-28 12:33N 35°49' E 014°32'0 0.0
2015-Jul-28 11:33N 35°49' E 014°32'0 0.0
2015-Jul-28 10:24N 35°49' E 014°32'0 0.0
2015-Jul-28 09:27N 35°49' E 014°32'0 0.0
2015-Jul-28 08:12N 35°49' E 014°32'0 0.0
2015-Jul-28 07:24N 35°49' E 014°32'0 0.0
2015-Jul-28 05:27N 35°49' E 014°32'0 0.0
2015-Jul-28 04:24N 35°49' E 014°32'0 0.0
2015-Jul-28 03:33N 35°49' E 014°32'0 0.0
2015-Jul-27 20:33N 35°49' E 014°32'3 3.3
2015-Jul-27 19:33N 35°47' E 014°35'1211.5
2015-Jul-27 18:33N 35°46' E 014°21'1312.9
2015-Jul-27 17:33N 35°53' E 014°08'1312.9
2015-Jul-27 16:33N 36°00' E 013°54'1312.8
2015-Jul-27 15:33N 36°07' E 013°40'1212.5
2015-Jul-27 14:33N 36°13' E 013°27'1212.4
2015-Jul-27 13:33N 36°20' E 013°14'1212.4
2015-Jul-27 12:33N 36°27' E 013°01'1312.6
2015-Jul-27 11:33N 36°33' E 012°48'1312.5
2015-Jul-27 10:33N 36°40' E 012°35'1313.2
2015-Jul-27 09:33N 36°47' E 012°21'1313.4
2015-Jul-27 08:33N 36°54' E 012°07'1313.2
2015-Jul-27 07:33N 37°01' E 011°52'2612.7
2015-Jul-27 05:31N 37°15' E 011°25'1713.4
2015-Jul-27 04:14N 37°23' E 011°06'2313.7
2015-Jul-27 02:31N 37°34' E 010°40'1613.4
2015-Jul-27 01:18N 37°42' E 010°22'1013.3
2015-Jul-27 00:33N 37°47' E 010°11'1313.1
2015-Jul-26 23:32N 37°54' E 009°57'1313.1
2015-Jul-26 22:33N 38°00' E 009°42'1312.8
2015-Jul-26 21:33N 38°06' E 009°28'1512.7
2015-Jul-26 20:23N 38°13' E 009°11'1512.8
2015-Jul-26 19:12N 38°20' E 008°54'912.6
2015-Jul-26 18:30N 38°24' E 008°44'1212.9
2015-Jul-26 17:32N 38°30' E 008°30'4212.9
2015-Jul-26 14:17N 39°04' E 007°59'23713.4
2015-Jul-25 20:33N 42°33' E 005°30'1313.4
2015-Jul-25 19:33N 42°45' E 005°21'1312.6
2015-Jul-25 18:33N 42°56' E 005°13'1312.8
2015-Jul-25 17:33N 43°07' E 005°04'1313.0
2015-Jul-25 16:33N 43°19' E 004°59'8 7.8
2015-Jul-25 15:33N 43°25' E 004°51'0 0.0
2015-Jul-25 14:32N 43°25' E 004°51'0 0.0
2015-Jul-25 13:32N 43°25' E 004°51'0 0.0
2015-Jul-25 12:32N 43°25' E 004°51'0 0.0
2015-Jul-25 11:32N 43°25' E 004°51'0 0.0
2015-Jul-25 10:32N 43°25' E 004°51'0 0.0
2015-Jul-25 09:32N 43°25' E 004°51'0 0.0
2015-Jul-25 08:32N 43°25' E 004°51'0 0.0
2015-Jul-25 07:32N 43°25' E 004°51'0 0.0
2015-Jul-25 06:32N 43°25' E 004°51'0 0.0
2015-Jul-25 05:32N 43°25' E 004°51'0 0.0
2015-Jul-25 04:32N 43°25' E 004°51'0 0.0
2015-Jul-25 03:32N 43°25' E 004°51'0 0.0
2015-Jul-25 02:32N 43°25' E 004°51'0 0.0
2015-Jul-25 01:32N 43°25' E 004°51'0 0.0
2015-Jul-25 00:32N 43°25' E 004°51'0 0.0
2015-Jul-24 23:32N 43°25' E 004°51'0 0.0
2015-Jul-24 22:32N 43°25' E 004°51'0 0.0
2015-Jul-24 21:32N 43°25' E 004°51'0 0.0
2015-Jul-24 20:32N 43°25' E 004°51'0 0.0
2015-Jul-24 19:32N 43°25' E 004°51'0 0.0
2015-Jul-24 18:32N 43°25' E 004°51'0 0.0
2015-Jul-24 17:32N 43°25' E 004°51'0 0.0
2015-Jul-24 16:32N 43°25' E 004°51'0 0.0
2015-Jul-24 15:32N 43°25' E 004°51'0 0.0
2015-Jul-24 14:32N 43°25' E 004°51'0 0.0
2015-Jul-24 13:32N 43°25' E 004°51'0 0.0
2015-Jul-24 12:32N 43°25' E 004°51'0 0.0
2015-Jul-24 11:32N 43°25' E 004°51'0 0.0
2015-Jul-24 10:32N 43°25' E 004°51'0 0.0
2015-Jul-24 09:32N 43°25' E 004°51'0 0.0
2015-Jul-24 08:32N 43°25' E 004°51'0 0.0
2015-Jul-24 07:32N 43°25' E 004°51'0 0.0
2015-Jul-24 06:32N 43°25' E 004°51'0 0.0
2015-Jul-24 05:32N 43°25' E 004°51'0 0.0
2015-Jul-24 04:32N 43°25' E 004°51'0 0.0
2015-Jul-24 03:32N 43°25' E 004°51'0 0.0
2015-Jul-24 02:32N 43°25' E 004°51'0 0.0
2015-Jul-24 01:32N 43°25' E 004°51'0 0.0
2015-Jul-24 00:32N 43°25' E 004°51'0 0.0
2015-Jul-23 23:33N 43°25' E 004°51'2 2.5
2015-Jul-23 22:33N 43°24' E 004°54'8 8.5
2015-Jul-23 21:33N 43°17' E 005°00'1110.5
2015-Jul-23 20:33N 43°07' E 004°57'1212.0
2015-Jul-23 19:33N 42°58' E 004°45'1212.0
2015-Jul-23 18:33N 42°49' E 004°34'1211.9
2015-Jul-23 17:33N 42°40' E 004°24'1211.8
2015-Jul-23 16:33N 42°31' E 004°13'1212.0
2015-Jul-23 15:33N 42°22' E 004°03'1111.4
2015-Jul-23 14:33N 42°14' E 003°53'1111.2
2015-Jul-23 13:33N 42°05' E 003°43'6311.6
2015-Jul-23 08:09N 41°24' E 002°39'1012.5
2015-Jul-23 07:19N 41°20' E 002°26'1012.5
2015-Jul-23 06:30N 41°17' E 002°13'5 1.2
2015-Jul-23 02:32N 41°21' E 002°10'0 0.0
2015-Jul-23 01:31N 41°21' E 002°10'0 0.0
2015-Jul-23 00:26N 41°21' E 002°10'0 0.0
2015-Jul-22 23:32N 41°21' E 002°10'0 0.0
2015-Jul-22 22:31N 41°21' E 002°10'0 0.0
2015-Jul-22 20:31N 41°21' E 002°10'0 0.0
2015-Jul-22 18:25N 41°21' E 002°10'0 0.0
2015-Jul-22 17:20N 41°21' E 002°10'0 0.0
2015-Jul-22 16:29N 41°21' E 002°10'4 4.3
2015-Jul-22 15:33N 41°17' E 002°12'7 7.3
2015-Jul-22 14:32N 41°11' E 002°07'1212.2
2015-Jul-22 13:33N 41°01' E 001°58'1212.1
2015-Jul-22 12:33N 40°51' E 001°49'1212.0
2015-Jul-22 11:33N 40°41' E 001°40'1211.9
2015-Jul-22 10:33N 40°31' E 001°31'1211.6
2015-Jul-22 09:34N 40°22' E 001°22'1211.8
2015-Jul-22 08:33N 40°12' E 001°13'1211.8
2015-Jul-22 07:33N 40°02' E 001°05'1211.9
2015-Jul-22 06:33N 39°53' E 000°55'1211.7
2015-Jul-22 05:33N 39°43' E 000°47'4911.1
2015-Jul-22 01:08N 39°26' W 000°13'5 8.4
2015-Jul-22 00:33N 39°26' W 000°19'1 0.5
2015-Jul-21 23:22N 39°27' W 000°19'0 0.0
2015-Jul-21 22:31N 39°27' W 000°19'0 0.0
2015-Jul-21 21:31N 39°27' W 000°19'0 0.0
2015-Jul-21 20:31N 39°27' W 000°19'0 0.0
2015-Jul-21 19:31N 39°27' W 000°19'0 0.0
2015-Jul-21 18:31N 39°27' W 000°19'0 0.0
2015-Jul-21 17:31N 39°27' W 000°19'0 0.0
2015-Jul-21 16:31N 39°27' W 000°19'0 0.0
2015-Jul-21 15:31N 39°27' W 000°19'0 0.0
2015-Jul-21 14:31N 39°27' W 000°19'0 0.0
2015-Jul-21 13:31N 39°27' W 000°19'0 0.0
2015-Jul-21 12:31N 39°27' W 000°19'0 0.0
2015-Jul-21 11:28N 39°27' W 000°19'0 0.0
2015-Jul-21 10:31N 39°27' W 000°19'0 0.0
2015-Jul-21 09:31N 39°27' W 000°19'0 0.0
2015-Jul-21 08:31N 39°27' W 000°19'0 0.0
2015-Jul-21 07:31N 39°27' W 000°19'0 0.0
2015-Jul-21 06:31N 39°27' W 000°19'0 0.0
2015-Jul-21 05:28N 39°27' W 000°19'0 0.0
2015-Jul-21 04:31N 39°27' W 000°19'0 0.0
2015-Jul-21 03:31N 39°27' W 000°19'0 0.0
2015-Jul-21 02:31N 39°27' W 000°19'0 0.0
2015-Jul-21 01:28N 39°27' W 000°19'0 0.0
2015-Jul-21 00:31N 39°27' W 000°19'0 0.0
2015-Jul-20 23:33N 39°27' W 000°19'5 5.3
2015-Jul-20 22:33N 39°25' W 000°12'1616.0
2015-Jul-20 21:33N 39°22' E 000°08'1616.1
2015-Jul-20 20:34N 39°20' E 000°29'1615.8
2015-Jul-20 19:33N 39°18' E 000°49'1615.9
2015-Jul-20 18:33N 39°15' E 001°09'1616.3
2015-Jul-20 17:34N 39°13' E 001°30'1616.1
2015-Jul-20 16:33N 39°10' E 001°50'1616.1
2015-Jul-20 15:33N 39°06' E 002°10'1616.3
2015-Jul-20 14:33N 39°02' E 002°31'1616.1
2015-Jul-20 13:33N 38°59' E 002°51'1616.4
2015-Jul-20 12:33N 38°55' E 003°11'1616.4
2015-Jul-20 11:33N 38°51' E 003°32'1616.3
2015-Jul-20 10:33N 38°48' E 003°52'1616.4
2015-Jul-20 09:33N 38°43' E 004°13'1616.3
2015-Jul-20 08:33N 38°40' E 004°33'1616.3
2015-Jul-20 07:33N 38°36' E 004°53'1616.4
2015-Jul-20 06:33N 38°33' E 005°14'1716.7
2015-Jul-20 05:34N 38°29' E 005°35'1818.1
2015-Jul-20 04:33N 38°25' E 005°57'1717.5
2015-Jul-20 03:33N 38°20' E 006°19'1717.2
2015-Jul-20 02:33N 38°16' E 006°40'1817.9
2015-Jul-20 01:33N 38°13' E 007°03'2018.5
2015-Jul-20 00:27N 38°08' E 007°28'1819.2
2015-Jul-19 23:30N 38°04' E 007°50'3718.6
2015-Jul-19 21:33N 37°55' E 008°35'1717.4
2015-Jul-19 20:33N 37°51' E 008°57'1717.0
2015-Jul-19 19:33N 37°47' E 009°17'1717.2
2015-Jul-19 18:33N 37°43' E 009°39'1716.8
2015-Jul-19 17:34N 37°40' E 009°59'1716.7
2015-Jul-19 16:33N 37°38' E 010°20'1716.8
2015-Jul-19 15:33N 37°34' E 010°41'1918.6
2015-Jul-19 14:33N 37°29' E 011°03'2019.9
2015-Jul-19 13:33N 37°20' E 011°26'2019.9
2015-Jul-19 12:33N 37°09' E 011°47'1919.3
2015-Jul-19 11:33N 36°59' E 012°07'1919.2
2015-Jul-19 10:33N 36°48' E 012°27'2019.6
2015-Jul-19 09:33N 36°38' E 012°48'2019.9
2015-Jul-19 08:33N 36°26' E 013°08'2019.7
2015-Jul-19 07:33N 36°15' E 013°28'2019.7
2015-Jul-19 06:33N 36°04' E 013°48'2019.7
2015-Jul-19 05:33N 35°53' E 014°08'  

Dump ship's entire track history